createdAt,value
2023-01-19T00:02:07.762Z,17.68
2023-01-19T00:12:09.001Z,17.78
2023-01-19T00:22:10.274Z,17.73
2023-01-19T00:32:11.522Z,17.73
2023-01-19T00:42:12.829Z,17.74
2023-01-19T00:52:14.124Z,17.81
2023-01-19T01:02:15.549Z,17.84
2023-01-19T01:22:45.730Z,17.82
2023-01-19T01:32:46.986Z,17.80
2023-01-19T01:42:48.232Z,17.89
2023-01-19T01:53:06.725Z,17.92
2023-01-19T02:03:09.052Z,17.95
2023-01-19T02:13:10.351Z,17.99
2023-01-19T02:23:11.621Z,17.97
2023-01-19T02:33:12.897Z,18.02
2023-01-19T02:43:14.388Z,17.98
2023-01-19T02:53:15.643Z,17.99
2023-01-19T03:03:16.924Z,18.03
2023-01-19T03:13:18.194Z,18.05
2023-01-19T03:23:19.444Z,18.04
2023-01-19T03:33:20.704Z,18.02
2023-01-19T03:43:21.960Z,18.10
2023-01-19T03:53:23.222Z,17.98
2023-01-19T04:03:24.487Z,18.01
2023-01-19T04:13:25.858Z,18.02
2023-01-19T04:23:27.097Z,18.02
2023-01-19T04:33:28.332Z,17.98
2023-01-19T04:43:29.703Z,17.99
2023-01-19T04:53:30.947Z,17.84
2023-01-19T05:03:32.186Z,17.78
2023-01-19T05:13:33.436Z,17.79
2023-01-19T05:23:34.695Z,17.83
2023-01-19T05:33:35.971Z,17.85
2023-01-19T05:43:37.202Z,17.80
2023-01-19T05:53:38.411Z,17.68
2023-01-19T06:03:39.687Z,17.79
2023-01-19T06:13:42.147Z,17.73
2023-01-19T06:23:43.498Z,17.83
2023-01-19T06:33:44.789Z,17.88
2023-01-19T06:43:46.081Z,17.89
2023-01-19T06:53:47.361Z,17.89
2023-01-19T07:03:48.670Z,17.88
2023-01-19T07:13:49.911Z,17.89
2023-01-19T07:23:51.198Z,17.85
2023-01-19T07:33:52.467Z,17.89
2023-01-19T07:43:53.690Z,17.85
2023-01-19T07:53:54.937Z,17.86
2023-01-19T08:03:56.173Z,17.87
2023-01-19T08:13:57.418Z,17.87
2023-01-19T08:23:58.711Z,17.85
2023-01-19T08:34:00.284Z,17.88
2023-01-19T08:44:01.520Z,17.84
2023-01-19T08:54:02.843Z,17.83
2023-01-19T09:04:04.100Z,17.86
2023-01-19T09:14:05.335Z,17.85
2023-01-19T09:24:06.612Z,17.86
2023-01-19T09:34:07.866Z,17.83
2023-01-19T09:44:09.191Z,17.84
2023-01-19T09:54:10.481Z,17.88
2023-01-19T10:04:11.757Z,17.88
2023-01-19T10:14:13.002Z,17.90
2023-01-19T10:24:14.274Z,17.93
2023-01-19T10:34:18.868Z,17.95
2023-01-19T10:44:20.772Z,17.88
2023-01-19T10:54:22.033Z,17.85
2023-01-19T11:04:23.312Z,17.86
2023-01-19T11:14:24.544Z,17.83
2023-01-19T11:24:25.794Z,17.85
2023-01-19T11:34:27.051Z,17.86
2023-01-19T11:44:28.285Z,17.90
2023-01-19T11:54:29.514Z,17.84
2023-01-19T12:04:30.797Z,17.78
2023-01-19T12:14:32.028Z,17.82
2023-01-19T12:24:33.326Z,17.87
2023-01-19T12:34:34.716Z,17.88
2023-01-19T12:44:35.996Z,17.89
2023-01-19T12:54:37.246Z,17.92
2023-01-19T13:04:38.475Z,17.89
2023-01-19T13:14:39.751Z,17.93
2023-01-19T13:24:42.157Z,17.95
2023-01-19T13:34:43.444Z,17.93
2023-01-19T13:44:44.844Z,17.92
2023-01-19T13:54:46.080Z,17.92
2023-01-19T14:04:47.359Z,17.88
2023-01-19T14:14:48.606Z,17.90
2023-01-19T14:24:49.870Z,17.91
2023-01-19T14:34:51.186Z,17.90
2023-01-19T14:44:52.451Z,17.85
2023-01-19T14:54:53.735Z,17.86
2023-01-19T15:04:55.004Z,17.86
2023-01-19T15:14:56.279Z,17.73
2023-01-19T15:24:57.638Z,17.65
2023-01-19T15:34:58.972Z,17.62
2023-01-19T15:45:00.228Z,17.57
2023-01-19T15:55:01.541Z,17.58
2023-01-19T16:05:02.831Z,17.45
2023-01-19T16:15:04.079Z,17.44
2023-01-19T16:25:05.350Z,17.50
2023-01-19T16:35:06.617Z,17.46
2023-01-19T16:45:07.881Z,17.51
2023-01-19T16:55:09.157Z,17.42
2023-01-19T17:05:10.516Z,17.53
2023-01-19T17:15:12.374Z,17.53
2023-01-19T17:25:13.643Z,17.49
2023-01-19T17:35:14.907Z,17.52
2023-01-19T17:45:16.155Z,17.56
2023-01-19T17:55:17.395Z,17.57
2023-01-19T18:05:18.636Z,17.57
2023-01-19T18:15:19.893Z,17.51
2023-01-19T18:25:21.293Z,17.72
2023-01-19T18:35:22.537Z,17.83
2023-01-19T18:45:23.812Z,17.87
2023-01-19T18:55:25.047Z,17.92
2023-01-19T19:05:26.316Z,17.89
2023-01-19T19:15:27.602Z,17.89
2023-01-19T19:25:28.892Z,17.92
2023-01-19T19:35:30.285Z,18.03
2023-01-19T19:45:31.524Z,18.06
2023-01-19T19:55:32.793Z,18.07
2023-01-19T20:05:34.333Z,18.10
2023-01-19T20:15:35.617Z,18.12
2023-01-19T20:25:36.868Z,18.15
2023-01-19T20:35:38.108Z,18.11
2023-01-19T20:45:39.398Z,18.11
2023-01-19T20:55:40.932Z,18.07
2023-01-19T21:05:42.218Z,18.07
2023-01-19T21:15:43.493Z,18.04
2023-01-19T21:25:44.761Z,18.05
2023-01-19T21:35:46.016Z,18.12
2023-01-19T21:45:47.315Z,18.08
2023-01-19T21:55:48.759Z,18.06
2023-01-19T22:05:50.057Z,18.03
2023-01-19T22:15:51.279Z,18.00
2023-01-19T22:25:52.623Z,18.00
2023-01-19T22:35:53.895Z,17.97
2023-01-19T22:45:55.243Z,18.02
2023-01-19T22:55:56.488Z,17.93
2023-01-19T23:05:57.855Z,17.99
2023-01-19T23:15:59.172Z,17.89
2023-01-19T23:26:00.423Z,17.84
2023-01-19T23:36:01.692Z,17.90
2023-01-19T23:46:03.162Z,17.90
2023-01-19T23:56:04.415Z,17.83
